Nikea — LZH2324 — position and weather

sailwx.info

Track history (hours):
 
Tides and Currents Weather Stations Pressure Air Temp Water Temp Dewpoint Dewpoint Depression Visibility Wind Speed Wind Dir Waves Ship Positions

Nikea

Last reported at 2017-Nov-08 08:54 UTC. Time now 2017-Nov-19 04:50 UTC.
Position N 40°51' E 024°19'.
Warning: this ship's position is 10 days out of date.

Length 14 m.

Type: Sailing vessel. MMSI: 207823240.

Date/timePositionNaut miles runAvg speedWind from/ knotsBaromVisibWave heightAir tempDewpointWater temp
2017-Nov-08 08:54N 40°51' E 024°19'1 2.7
2017-Nov-08 08:24N 40°51' E 024°21'3 6.1
2017-Nov-08 07:58N 40°53' E 024°22'3 6.1
2017-Nov-08 07:29N 40°56' E 024°24'  
2017-Oct-29 17:22N 40°56' E 024°25'2 4.8
2017-Oct-29 17:00N 40°55' E 024°26'3 6.6
2017-Oct-29 16:30N 40°54' E 024°30'3 6.3
2017-Oct-29 16:00N 40°52' E 024°34'1 1.3
2017-Oct-29 15:30N 40°52' E 024°35'1 1.4
2017-Oct-29 15:00N 40°51' E 024°36'2 5.0
2017-Oct-29 14:30N 40°50' E 024°39'2 4.7
2017-Oct-29 14:00N 40°49' E 024°41'3 5.0
2017-Oct-29 13:28N 40°47' E 024°44'  
Track history (hours):
 
Tides and Currents Weather Stations Pressure Air Temp Water Temp Dewpoint Dewpoint Depression Visibility Wind Speed Wind Dir Waves Ship Positions

Nikea

Last reported at 2017-Nov-08 08:54 UTC. Time now 2017-Nov-19 04:50 UTC.
Position N 40°51' E 024°19'.
Warning: this ship's position is 10 days out of date.

Length 14 m.

Type: Sailing vessel. MMSI: 207823240.

Date/timePositionNaut miles runAvg speedWind from/ knotsBaromVisibWave heightAir tempDewpointWater temp
2017-Nov-08 08:54N 40°51' E 024°19'1 2.7
2017-Nov-08 08:24N 40°51' E 024°21'3 6.1
2017-Nov-08 07:58N 40°53' E 024°22'3 6.1
2017-Nov-08 07:29N 40°56' E 024°24'  
2017-Oct-29 17:22N 40°56' E 024°25'2 4.8
2017-Oct-29 17:00N 40°55' E 024°26'3 6.6
2017-Oct-29 16:30N 40°54' E 024°30'3 6.3
2017-Oct-29 16:00N 40°52' E 024°34'1 1.3
2017-Oct-29 15:30N 40°52' E 024°35'1 1.4
2017-Oct-29 15:00N 40°51' E 024°36'2 5.0
2017-Oct-29 14:30N 40°50' E 024°39'2 4.7
2017-Oct-29 14:00N 40°49' E 024°41'3 5.0
2017-Oct-29 13:28N 40°47' E 024°44'  

Dump ship's entire track history